sensor_id;sensor_type;location;lat;lon;timestamp;pressure;altitude;pressure_sealevel;temperature;humidity
63883;BME280;50047;50.596;30.466;2023-07-09T00:02:03;99231.19;;;17.51;64.81
63883;BME280;50047;50.596;30.466;2023-07-09T00:04:31;99228.95;;;17.39;65.30
63883;BME280;50047;50.596;30.466;2023-07-09T00:07:03;99224.52;;;17.27;65.76
63883;BME280;50047;50.596;30.466;2023-07-09T00:09:32;99219.19;;;17.20;65.99
63883;BME280;50047;50.596;30.466;2023-07-09T00:11:59;99218.63;;;17.11;66.25
63883;BME280;50047;50.596;30.466;2023-07-09T00:14:27;99217.20;;;17.08;66.52
63883;BME280;50047;50.596;30.466;2023-07-09T00:16:55;99219.41;;;17.03;67.17
63883;BME280;50047;50.596;30.466;2023-07-09T00:19:23;99217.60;;;17.42;67.74
63883;BME280;50047;50.596;30.466;2023-07-09T00:21:52;99216.52;;;17.88;66.54
63883;BME280;50047;50.596;30.466;2023-07-09T00:24:22;99212.63;;;18.14;65.40
63883;BME280;50047;50.596;30.466;2023-07-09T00:26:50;99211.94;;;18.08;65.25
63883;BME280;50047;50.596;30.466;2023-07-09T00:29:18;99208.23;;;17.97;65.29
63883;BME280;50047;50.596;30.466;2023-07-09T00:31:46;99203.59;;;17.78;65.64
63883;BME280;50047;50.596;30.466;2023-07-09T00:34:15;99205.43;;;17.70;65.58
63883;BME280;50047;50.596;30.466;2023-07-09T00:36:45;99202.53;;;17.64;65.99
63883;BME280;50047;50.596;30.466;2023-07-09T00:39:18;99205.23;;;17.49;66.45
63883;BME280;50047;50.596;30.466;2023-07-09T00:41:47;99211.58;;;17.38;66.91
63883;BME280;50047;50.596;30.466;2023-07-09T00:52:21;99204.23;;;17.66;66.71
63883;BME280;50047;50.596;30.466;2023-07-09T00:54:51;99207.03;;;17.94;65.61
63883;BME280;50047;50.596;30.466;2023-07-09T00:57:23;99202.80;;;18.04;64.62
63883;BME280;50047;50.596;30.466;2023-07-09T00:59:57;99203.68;;;17.92;64.09
63883;BME280;50047;50.596;30.466;2023-07-09T01:02:27;99201.30;;;17.80;63.96
63883;BME280;50047;50.596;30.466;2023-07-09T01:04:59;99198.95;;;17.64;63.82
63883;BME280;50047;50.596;30.466;2023-07-09T01:07:30;99196.90;;;17.46;64.00
63883;BME280;50047;50.596;30.466;2023-07-09T01:09:58;99197.31;;;17.34;64.16
63883;BME280;50047;50.596;30.466;2023-07-09T01:12:26;99202.40;;;17.18;64.44
63883;BME280;50047;50.596;30.466;2023-07-09T01:14:56;99200.95;;;17.06;64.64
63883;BME280;50047;50.596;30.466;2023-07-09T01:17:27;99205.59;;;16.94;64.70
63883;BME280;50047;50.596;30.466;2023-07-09T01:19:56;99205.55;;;16.85;65.01
63883;BME280;50047;50.596;30.466;2023-07-09T01:22:25;99208.00;;;16.77;64.91
63883;BME280;50047;50.596;30.466;2023-07-09T01:27:45;99211.11;;;16.59;65.32
63883;BME280;50047;50.596;30.466;2023-07-09T01:30:22;99212.02;;;16.52;65.45
63883;BME280;50047;50.596;30.466;2023-07-09T01:32:51;99212.27;;;16.48;65.74
63883;BME280;50047;50.596;30.466;2023-07-09T01:35:24;99213.44;;;16.44;65.93
63883;BME280;50047;50.596;30.466;2023-07-09T01:37:53;99217.73;;;16.39;66.26
63883;BME280;50047;50.596;30.466;2023-07-09T01:40:23;99219.28;;;16.33;66.14
63883;BME280;50047;50.596;30.466;2023-07-09T01:43:01;99221.56;;;16.32;66.76
63883;BME280;50047;50.596;30.466;2023-07-09T01:45:29;99223.11;;;16.65;67.17
63883;BME280;50047;50.596;30.466;2023-07-09T01:47:57;99222.52;;;17.10;66.25
63883;BME280;50047;50.596;30.466;2023-07-09T01:50:25;99219.81;;;17.33;65.34
63883;BME280;50047;50.596;30.466;2023-07-09T01:52:56;99224.92;;;17.31;64.72
63883;BME280;50047;50.596;30.466;2023-07-09T01:55:26;99221.17;;;17.21;64.59
63883;BME280;50047;50.596;30.466;2023-07-09T01:57:57;99220.20;;;17.11;64.48
63883;BME280;50047;50.596;30.466;2023-07-09T02:00:24;99224.45;;;16.94;64.62
63883;BME280;50047;50.596;30.466;2023-07-09T02:02:52;99226.13;;;16.80;64.84
63883;BME280;50047;50.596;30.466;2023-07-09T02:05:22;99226.92;;;16.69;65.11
63883;BME280;50047;50.596;30.466;2023-07-09T02:07:50;99231.16;;;16.58;65.27
63883;BME280;50047;50.596;30.466;2023-07-09T02:10:22;99232.79;;;16.50;65.52
63883;BME280;50047;50.596;30.466;2023-07-09T02:12:50;99240.77;;;16.42;65.70
63883;BME280;50047;50.596;30.466;2023-07-09T02:15:18;99238.60;;;16.36;65.87
63883;BME280;50047;50.596;30.466;2023-07-09T02:17:47;99248.60;;;16.32;65.84
63883;BME280;50047;50.596;30.466;2023-07-09T02:20:14;99251.11;;;16.28;65.94
63883;BME280;50047;50.596;30.466;2023-07-09T02:22:42;99250.83;;;16.29;66.37
63883;BME280;50047;50.596;30.466;2023-07-09T02:25:11;99252.79;;;16.61;67.30
63883;BME280;50047;50.596;30.466;2023-07-09T02:27:39;99256.27;;;17.03;66.49
63883;BME280;50047;50.596;30.466;2023-07-09T02:30:07;99254.58;;;17.27;65.87
63883;BME280;50047;50.596;30.466;2023-07-09T02:32:37;99254.29;;;17.35;65.05
63883;BME280;50047;50.596;30.466;2023-07-09T02:35:05;99260.22;;;17.26;64.59
63883;BME280;50047;50.596;30.466;2023-07-09T02:37:33;99261.29;;;17.15;64.32
63883;BME280;50047;50.596;30.466;2023-07-09T02:40:00;99262.70;;;17.04;64.41
63883;BME280;50047;50.596;30.466;2023-07-09T02:42:28;99264.65;;;16.95;64.43
63883;BME280;50047;50.596;30.466;2023-07-09T02:44:56;99267.39;;;16.88;64.43
63883;BME280;50047;50.596;30.466;2023-07-09T02:47:25;99268.62;;;16.82;64.62
63883;BME280;50047;50.596;30.466;2023-07-09T02:49:54;99266.39;;;16.76;64.79
63883;BME280;50047;50.596;30.466;2023-07-09T02:52:22;99271.77;;;16.75;64.74
63883;BME280;50047;50.596;30.466;2023-07-09T02:54:50;99269.82;;;16.73;65.07
63883;BME280;50047;50.596;30.466;2023-07-09T02:57:17;99268.84;;;16.76;64.86
63883;BME280;50047;50.596;30.466;2023-07-09T02:59:45;99268.65;;;16.79;64.64
63883;BME280;50047;50.596;30.466;2023-07-09T03:02:13;99269.13;;;16.80;64.74
63883;BME280;50047;50.596;30.466;2023-07-09T03:04:41;99265.04;;;16.84;64.62
63883;BME280;50047;50.596;30.466;2023-07-09T03:07:08;99268.11;;;16.86;64.61
63883;BME280;50047;50.596;30.466;2023-07-09T03:09:36;99266.59;;;16.88;64.75
63883;BME280;50047;50.596;30.466;2023-07-09T03:12:05;99263.48;;;16.93;64.75
63883;BME280;50047;50.596;30.466;2023-07-09T03:14:33;99264.42;;;17.04;64.40
63883;BME280;50047;50.596;30.466;2023-07-09T03:17:01;99255.63;;;17.13;64.15
63883;BME280;50047;50.596;30.466;2023-07-09T03:19:28;99255.20;;;17.24;63.92
63883;BME280;50047;50.596;30.466;2023-07-09T03:21:56;99254.86;;;17.36;63.64
63883;BME280;50047;50.596;30.466;2023-07-09T03:24:24;99252.48;;;17.48;63.32
63883;BME280;50047;50.596;30.466;2023-07-09T03:26:52;99251.45;;;17.61;63.02
63883;BME280;50047;50.596;30.466;2023-07-09T03:29:19;99250.66;;;17.78;62.44
63883;BME280;50047;50.596;30.466;2023-07-09T03:31:47;99245.24;;;17.99;62.26
63883;BME280;50047;50.596;30.466;2023-07-09T03:34:17;99245.13;;;18.25;61.50
63883;BME280;50047;50.596;30.466;2023-07-09T03:36:45;99245.33;;;18.51;60.79
63883;BME280;50047;50.596;30.466;2023-07-09T03:39:13;99242.94;;;18.69;60.28
63883;BME280;50047;50.596;30.466;2023-07-09T03:41:41;99246.66;;;18.77;59.85
63883;BME280;50047;50.596;30.466;2023-07-09T03:44:08;99245.07;;;18.89;59.81
63883;BME280;50047;50.596;30.466;2023-07-09T03:46:36;99245.81;;;19.01;59.06
63883;BME280;50047;50.596;30.466;2023-07-09T03:49:04;99246.31;;;19.19;58.83
63883;BME280;50047;50.596;30.466;2023-07-09T03:51:31;99245.90;;;19.40;58.28
63883;BME280;50047;50.596;30.466;2023-07-09T03:53:59;99244.17;;;19.66;57.22
63883;BME280;50047;50.596;30.466;2023-07-09T03:56:28;99251.27;;;20.05;56.80
63883;BME280;50047;50.596;30.466;2023-07-09T03:58:55;99250.06;;;20.45;55.71
63883;BME280;50047;50.596;30.466;2023-07-09T04:01:23;99252.30;;;20.79;54.73
63883;BME280;50047;50.596;30.466;2023-07-09T04:03:51;99254.44;;;21.06;53.85
63883;BME280;50047;50.596;30.466;2023-07-09T04:06:18;99266.20;;;21.27;53.56
63883;BME280;50047;50.596;30.466;2023-07-09T04:08:46;99260.05;;;21.47;52.57
63883;BME280;50047;50.596;30.466;2023-07-09T04:11:14;99265.79;;;21.76;52.07
63883;BME280;50047;50.596;30.466;2023-07-09T04:13:41;99261.98;;;22.38;50.99
63883;BME280;50047;50.596;30.466;2023-07-09T04:16:10;99269.39;;;23.01;49.40
63883;BME280;50047;50.596;30.466;2023-07-09T04:18:38;99261.94;;;23.64;48.13
63883;BME280;50047;50.596;30.466;2023-07-09T04:21:06;99255.04;;;24.13;46.47
63883;BME280;50047;50.596;30.466;2023-07-09T04:23:33;99261.56;;;24.20;46.57
63883;BME280;50047;50.596;30.466;2023-07-09T04:26:01;99258.66;;;24.26;46.07
63883;BME280;50047;50.596;30.466;2023-07-09T04:28:30;99252.16;;;24.32;45.35
63883;BME280;50047;50.596;30.466;2023-07-09T04:30:59;99257.73;;;24.50;45.62
63883;BME280;50047;50.596;30.466;2023-07-09T04:33:26;99260.42;;;24.56;45.24
63883;BME280;50047;50.596;30.466;2023-07-09T04:35:55;99251.98;;;24.42;45.30
63883;BME280;50047;50.596;30.466;2023-07-09T04:38:23;99256.08;;;24.58;45.11
63883;BME280;50047;50.596;30.466;2023-07-09T04:40:51;99256.63;;;25.00;44.00
63883;BME280;50047;50.596;30.466;2023-07-09T04:43:19;99254.41;;;25.46;43.12
63883;BME280;50047;50.596;30.466;2023-07-09T04:45:47;99250.64;;;25.57;43.25
63883;BME280;50047;50.596;30.466;2023-07-09T04:48:15;99250.30;;;25.59;43.05
63883;BME280;50047;50.596;30.466;2023-07-09T04:50:43;99256.50;;;25.59;43.14
63883;BME280;50047;50.596;30.466;2023-07-09T04:53:11;99252.70;;;26.01;42.21
63883;BME280;50047;50.596;30.466;2023-07-09T04:55:39;99253.67;;;26.45;41.45
63883;BME280;50047;50.596;30.466;2023-07-09T04:58:07;99264.40;;;26.47;41.45
63883;BME280;50047;50.596;30.466;2023-07-09T05:00:34;99258.67;;;26.50;41.56
63883;BME280;50047;50.596;30.466;2023-07-09T05:03:02;99253.64;;;26.83;41.38
63883;BME280;50047;50.596;30.466;2023-07-09T05:05:30;99255.15;;;27.08;40.94
63883;BME280;50047;50.596;30.466;2023-07-09T05:07:58;99257.86;;;27.25;40.18
63883;BME280;50047;50.596;30.466;2023-07-09T05:10:26;99247.02;;;27.52;40.02
63883;BME280;50047;50.596;30.466;2023-07-09T05:12:54;99242.77;;;27.49;39.62
63883;BME280;50047;50.596;30.466;2023-07-09T05:15:23;99245.27;;;27.64;39.39
63883;BME280;50047;50.596;30.466;2023-07-09T05:17:51;99256.23;;;27.91;38.42
63883;BME280;50047;50.596;30.466;2023-07-09T05:20:19;99259.91;;;28.08;38.87
63883;BME280;50047;50.596;30.466;2023-07-09T05:22:49;99247.50;;;28.18;38.44
63883;BME280;50047;50.596;30.466;2023-07-09T05:25:16;99245.39;;;28.58;37.49
63883;BME280;50047;50.596;30.466;2023-07-09T05:27:44;99249.47;;;29.07;36.59
63883;BME280;50047;50.596;30.466;2023-07-09T05:30:12;99249.59;;;29.72;35.86
63883;BME280;50047;50.596;30.466;2023-07-09T05:32:40;99266.33;;;29.80;34.74
63883;BME280;50047;50.596;30.466;2023-07-09T05:35:08;99255.23;;;29.80;35.06
63883;BME280;50047;50.596;30.466;2023-07-09T05:37:36;99259.45;;;29.94;34.47
63883;BME280;50047;50.596;30.466;2023-07-09T05:40:05;99252.77;;;30.01;34.78
63883;BME280;50047;50.596;30.466;2023-07-09T05:42:33;99267.95;;;30.28;33.83
63883;BME280;50047;50.596;30.466;2023-07-09T05:45:01;99254.90;;;30.49;33.41
63883;BME280;50047;50.596;30.466;2023-07-09T05:47:29;99268.82;;;30.72;33.49
63883;BME280;50047;50.596;30.466;2023-07-09T05:49:57;99247.66;;;31.37;33.07
63883;BME280;50047;50.596;30.466;2023-07-09T05:52:25;99256.77;;;31.95;31.82
63883;BME280;50047;50.596;30.466;2023-07-09T05:54:52;99265.95;;;32.08;31.13
63883;BME280;50047;50.596;30.466;2023-07-09T05:57:20;99262.86;;;32.25;31.52
63883;BME280;50047;50.596;30.466;2023-07-09T05:59:49;99263.16;;;32.32;30.93
63883;BME280;50047;50.596;30.466;2023-07-09T06:02:18;99270.69;;;32.36;30.36
63883;BME280;50047;50.596;30.466;2023-07-09T06:04:47;99273.20;;;32.56;30.34
63883;BME280;50047;50.596;30.466;2023-07-09T06:07:18;99285.81;;;32.62;30.23
63883;BME280;50047;50.596;30.466;2023-07-09T06:09:46;99272.19;;;32.78;30.27
63883;BME280;50047;50.596;30.466;2023-07-09T06:12:15;99252.70;;;33.34;29.51
63883;BME280;50047;50.596;30.466;2023-07-09T06:14:43;99256.41;;;33.80;28.70
63883;BME280;50047;50.596;30.466;2023-07-09T06:17:11;99267.49;;;33.91;28.60
63883;BME280;50047;50.596;30.466;2023-07-09T06:19:39;99265.20;;;33.91;28.25
63883;BME280;50047;50.596;30.466;2023-07-09T06:22:07;99256.13;;;34.06;28.02
63883;BME280;50047;50.596;30.466;2023-07-09T06:24:35;99260.24;;;34.29;28.02
63883;BME280;50047;50.596;30.466;2023-07-09T06:27:02;99264.42;;;34.38;27.78
63883;BME280;50047;50.596;30.466;2023-07-09T06:29:30;99261.95;;;33.82;28.22
63883;BME280;50047;50.596;30.466;2023-07-09T06:31:58;99256.97;;;33.68;28.46
63883;BME280;50047;50.596;30.466;2023-07-09T06:34:26;99251.67;;;33.33;28.75
63883;BME280;50047;50.596;30.466;2023-07-09T06:36:53;99261.07;;;33.01;29.30
63883;BME280;50047;50.596;30.466;2023-07-09T06:39:21;99254.84;;;33.08;29.15
63883;BME280;50047;50.596;30.466;2023-07-09T06:41:49;99246.22;;;33.34;28.78
63883;BME280;50047;50.596;30.466;2023-07-09T06:44:46;99254.14;;;33.29;28.75
63883;BME280;50047;50.596;30.466;2023-07-09T06:47:14;99249.75;;;33.05;29.15
63883;BME280;50047;50.596;30.466;2023-07-09T06:49:42;99255.42;;;32.57;29.61
63883;BME280;50047;50.596;30.466;2023-07-09T06:52:10;99256.06;;;32.94;29.37
63883;BME280;50047;50.596;30.466;2023-07-09T06:54:37;99248.36;;;33.33;28.79
63883;BME280;50047;50.596;30.466;2023-07-09T06:57:05;99257.21;;;33.64;28.37
63883;BME280;50047;50.596;30.466;2023-07-09T06:59:33;99252.20;;;33.86;28.29
63883;BME280;50047;50.596;30.466;2023-07-09T07:02:01;99247.82;;;33.99;27.92
63883;BME280;50047;50.596;30.466;2023-07-09T07:04:28;99249.27;;;33.89;27.90
63883;BME280;50047;50.596;30.466;2023-07-09T07:06:57;99256.85;;;34.01;27.79
63883;BME280;50047;50.596;30.466;2023-07-09T07:09:24;99259.16;;;34.20;27.84
63883;BME280;50047;50.596;30.466;2023-07-09T07:11:52;99256.94;;;33.92;27.88
63883;BME280;50047;50.596;30.466;2023-07-09T07:14:20;99244.80;;;32.93;28.77
63883;BME280;50047;50.596;30.466;2023-07-09T07:16:48;99247.45;;;31.65;30.19
63883;BME280;50047;50.596;30.466;2023-07-09T07:19:16;99259.65;;;30.15;32.21
63883;BME280;50047;50.596;30.466;2023-07-09T07:21:43;99248.52;;;29.16;34.29
63883;BME280;50047;50.596;30.466;2023-07-09T07:24:12;99248.70;;;28.32;35.36
63883;BME280;50047;50.596;30.466;2023-07-09T07:26:40;99252.41;;;27.68;36.29
63883;BME280;50047;50.596;30.466;2023-07-09T07:29:07;99254.33;;;26.91;37.74
63883;BME280;50047;50.596;30.466;2023-07-09T07:31:35;99262.86;;;26.43;39.21
63883;BME280;50047;50.596;30.466;2023-07-09T07:34:03;99272.95;;;26.03;40.73
63883;BME280;50047;50.596;30.466;2023-07-09T07:36:31;99275.50;;;25.69;42.07
63883;BME280;50047;50.596;30.466;2023-07-09T07:39:05;99281.27;;;25.01;43.03
63883;BME280;50047;50.596;30.466;2023-07-09T07:41:33;99274.75;;;24.73;44.28
63883;BME280;50047;50.596;30.466;2023-07-09T07:44:01;99272.98;;;24.44;45.46
63883;BME280;50047;50.596;30.466;2023-07-09T07:46:28;99274.99;;;24.08;45.55
63883;BME280;50047;50.596;30.466;2023-07-09T07:48:59;99267.41;;;23.82;46.01
63883;BME280;50047;50.596;30.466;2023-07-09T07:51:27;99268.58;;;23.60;46.14
63883;BME280;50047;50.596;30.466;2023-07-09T07:53:56;99267.56;;;23.41;46.97
63883;BME280;50047;50.596;30.466;2023-07-09T07:56:23;99275.45;;;23.29;47.23
63883;BME280;50047;50.596;30.466;2023-07-09T08:02:31;99243.73;;;23.26;48.67
63883;BME280;50047;50.596;30.466;2023-07-09T08:05:00;99271.29;;;23.09;48.04
63883;BME280;50047;50.596;30.466;2023-07-09T08:07:28;99256.94;;;22.96;48.69
63883;BME280;50047;50.596;30.466;2023-07-09T08:09:58;99259.14;;;22.93;49.30
63883;BME280;50047;50.596;30.466;2023-07-09T08:12:27;99258.40;;;22.94;49.26
63883;BME280;50047;50.596;30.466;2023-07-09T08:14:54;99256.38;;;22.95;49.22
63883;BME280;50047;50.596;30.466;2023-07-09T08:17:22;99257.98;;;22.95;49.27
63883;BME280;50047;50.596;30.466;2023-07-09T08:19:52;99241.16;;;22.91;49.68
63883;BME280;50047;50.596;30.466;2023-07-09T08:22:21;99249.92;;;22.86;48.83
63883;BME280;50047;50.596;30.466;2023-07-09T08:24:50;99254.52;;;22.82;48.81
63883;BME280;50047;50.596;30.466;2023-07-09T08:27:18;99250.94;;;22.85;48.79
63883;BME280;50047;50.596;30.466;2023-07-09T08:29:46;99244.71;;;22.81;49.39
63883;BME280;50047;50.596;30.466;2023-07-09T08:32:14;99244.42;;;22.85;49.89
63883;BME280;50047;50.596;30.466;2023-07-09T08:34:42;99246.70;;;22.84;49.65
63883;BME280;50047;50.596;30.466;2023-07-09T08:37:30;99246.33;;;22.82;50.61
63883;BME280;50047;50.596;30.466;2023-07-09T08:39:58;99246.61;;;22.84;49.91
63883;BME280;50047;50.596;30.466;2023-07-09T08:42:35;99236.58;;;22.81;49.97
63883;BME280;50047;50.596;30.466;2023-07-09T08:48:20;99252.87;;;22.84;50.88
63883;BME280;50047;50.596;30.466;2023-07-09T08:50:57;99247.96;;;22.81;50.62
63883;BME280;50047;50.596;30.466;2023-07-09T08:53:39;99229.92;;;22.70;50.10
63883;BME280;50047;50.596;30.466;2023-07-09T08:56:09;99245.54;;;22.75;50.67
63883;BME280;50047;50.596;30.466;2023-07-09T08:58:38;99239.09;;;22.75;50.80
63883;BME280;50047;50.596;30.466;2023-07-09T09:01:19;99248.73;;;22.77;51.04
63883;BME280;50047;50.596;30.466;2023-07-09T09:03:51;99252.03;;;22.83;50.84
63883;BME280;50047;50.596;30.466;2023-07-09T09:06:24;99244.36;;;22.87;50.44
63883;BME280;50047;50.596;30.466;2023-07-09T09:11:45;99249.51;;;22.80;50.88
63883;BME280;50047;50.596;30.466;2023-07-09T09:16:51;99230.10;;;22.93;51.34
63883;BME280;50047;50.596;30.466;2023-07-09T09:19:31;99230.71;;;22.89;51.50
63883;BME280;50047;50.596;30.466;2023-07-09T09:22:10;99238.10;;;23.02;52.02
63883;BME280;50047;50.596;30.466;2023-07-09T09:27:50;99243.15;;;22.98;50.53
63883;BME280;50047;50.596;30.466;2023-07-09T09:30:20;99241.51;;;22.99;49.92
63883;BME280;50047;50.596;30.466;2023-07-09T09:35:26;99251.15;;;23.06;50.56
63883;BME280;50047;50.596;30.466;2023-07-09T09:37:57;99228.16;;;23.07;50.99
63883;BME280;50047;50.596;30.466;2023-07-09T09:40:28;99241.66;;;23.12;50.70
63883;BME280;50047;50.596;30.466;2023-07-09T09:42:57;99246.23;;;23.07;49.81
63883;BME280;50047;50.596;30.466;2023-07-09T09:45:33;99237.02;;;22.95;50.22
63883;BME280;50047;50.596;30.466;2023-07-09T09:48:31;99235.64;;;22.95;50.12
63883;BME280;50047;50.596;30.466;2023-07-09T09:50:58;99228.56;;;22.98;50.78
63883;BME280;50047;50.596;30.466;2023-07-09T09:53:37;99238.52;;;23.06;50.82
63883;BME280;50047;50.596;30.466;2023-07-09T09:56:13;99247.38;;;23.10;49.33
63883;BME280;50047;50.596;30.466;2023-07-09T09:58:41;99245.48;;;23.09;49.40
63883;BME280;50047;50.596;30.466;2023-07-09T10:01:15;99236.81;;;23.14;49.10
63883;BME280;50047;50.596;30.466;2023-07-09T10:03:47;99234.64;;;23.17;49.40
63883;BME280;50047;50.596;30.466;2023-07-09T10:06:22;99233.45;;;23.25;49.33
63883;BME280;50047;50.596;30.466;2023-07-09T10:08:58;99236.77;;;23.33;48.89
63883;BME280;50047;50.596;30.466;2023-07-09T10:11:48;99214.34;;;23.38;48.31
63883;BME280;50047;50.596;30.466;2023-07-09T10:20:24;99238.53;;;23.50;47.88
63883;BME280;50047;50.596;30.466;2023-07-09T10:28:52;99214.48;;;23.67;47.73
63883;BME280;50047;50.596;30.466;2023-07-09T10:39:44;99213.63;;;23.65;46.88
63883;BME280;50047;50.596;30.466;2023-07-09T10:42:23;99214.45;;;23.68;48.20
63883;BME280;50047;50.596;30.466;2023-07-09T10:45:03;99223.48;;;23.76;48.01
63883;BME280;50047;50.596;30.466;2023-07-09T10:47:43;99217.32;;;23.78;47.33
63883;BME280;50047;50.596;30.466;2023-07-09T10:50:29;99216.14;;;23.86;47.85
63883;BME280;50047;50.596;30.466;2023-07-09T10:53:02;99215.55;;;23.96;48.47
63883;BME280;50047;50.596;30.466;2023-07-09T10:56:04;99213.51;;;24.07;47.20
63883;BME280;50047;50.596;30.466;2023-07-09T10:59:00;99210.17;;;24.27;47.26
63883;BME280;50047;50.596;30.466;2023-07-09T11:01:54;99233.65;;;24.39;47.11
63883;BME280;50047;50.596;30.466;2023-07-09T11:04:37;99215.90;;;24.34;47.51
63883;BME280;50047;50.596;30.466;2023-07-09T11:07:12;99216.25;;;24.24;47.70
63883;BME280;50047;50.596;30.466;2023-07-09T11:09:43;99217.11;;;24.28;48.32
63883;BME280;50047;50.596;30.466;2023-07-09T11:12:23;99206.02;;;24.33;48.06
63883;BME280;50047;50.596;30.466;2023-07-09T11:15:05;99198.29;;;24.33;47.66
63883;BME280;50047;50.596;30.466;2023-07-09T11:17:40;99205.91;;;24.44;48.11
63883;BME280;50047;50.596;30.466;2023-07-09T11:20:43;99221.21;;;24.42;47.47
63883;BME280;50047;50.596;30.466;2023-07-09T11:23:24;99211.70;;;24.29;47.08
63883;BME280;50047;50.596;30.466;2023-07-09T11:28:35;99197.30;;;24.05;47.09
63883;BME280;50047;50.596;30.466;2023-07-09T11:31:08;99198.19;;;23.96;46.79
63883;BME280;50047;50.596;30.466;2023-07-09T11:33:48;99197.33;;;23.88;47.40
63883;BME280;50047;50.596;30.466;2023-07-09T11:36:28;99207.04;;;23.93;47.91
63883;BME280;50047;50.596;30.466;2023-07-09T11:38:56;99202.71;;;24.08;48.23
63883;BME280;50047;50.596;30.466;2023-07-09T11:44:20;99199.39;;;24.68;47.87
63883;BME280;50047;50.596;30.466;2023-07-09T11:46:59;99203.41;;;24.64;46.40
63883;BME280;50047;50.596;30.466;2023-07-09T11:49:44;99198.77;;;24.33;46.77
63883;BME280;50047;50.596;30.466;2023-07-09T11:52:15;99199.77;;;24.13;48.18
63883;BME280;50047;50.596;30.466;2023-07-09T11:54:47;99200.92;;;24.21;48.06
63883;BME280;50047;50.596;30.466;2023-07-09T11:57:14;99196.90;;;24.22;47.51
63883;BME280;50047;50.596;30.466;2023-07-09T11:59:42;99206.41;;;24.24;47.67
63883;BME280;50047;50.596;30.466;2023-07-09T12:02:21;99201.51;;;24.09;48.15
63883;BME280;50047;50.596;30.466;2023-07-09T12:04:50;99195.87;;;24.11;48.64
63883;BME280;50047;50.596;30.466;2023-07-09T12:07:20;99191.02;;;24.24;47.35
63883;BME280;50047;50.596;30.466;2023-07-09T12:09:51;99194.19;;;24.36;47.47
63883;BME280;50047;50.596;30.466;2023-07-09T12:12:26;99192.42;;;24.37;48.14
63883;BME280;50047;50.596;30.466;2023-07-09T12:14:55;99184.20;;;24.34;47.62
63883;BME280;50047;50.596;30.466;2023-07-09T12:17:26;99194.52;;;24.34;47.54
63883;BME280;50047;50.596;30.466;2023-07-09T12:19:54;99191.91;;;24.31;47.13
63883;BME280;50047;50.596;30.466;2023-07-09T12:22:22;99186.80;;;24.34;47.57
63883;BME280;50047;50.596;30.466;2023-07-09T12:24:50;99190.80;;;24.33;48.01
63883;BME280;50047;50.596;30.466;2023-07-09T12:27:24;99194.55;;;24.26;48.47
63883;BME280;50047;50.596;30.466;2023-07-09T12:29:55;99184.52;;;24.25;48.72
63883;BME280;50047;50.596;30.466;2023-07-09T12:32:23;99179.29;;;24.32;48.20
63883;BME280;50047;50.596;30.466;2023-07-09T12:34:56;99178.52;;;24.46;47.75
63883;BME280;50047;50.596;30.466;2023-07-09T12:37:25;99183.48;;;24.58;47.18
63883;BME280;50047;50.596;30.466;2023-07-09T12:39:59;99181.95;;;24.63;47.62
63883;BME280;50047;50.596;30.466;2023-07-09T12:42:33;99177.99;;;24.57;47.14
63883;BME280;50047;50.596;30.466;2023-07-09T12:45:02;99167.01;;;24.49;47.83
63883;BME280;50047;50.596;30.466;2023-07-09T12:47:29;99175.80;;;24.44;47.44
63883;BME280;50047;50.596;30.466;2023-07-09T12:50:08;99175.70;;;24.30;47.69
63883;BME280;50047;50.596;30.466;2023-07-09T12:52:48;99171.35;;;24.17;47.91
63883;BME280;50047;50.596;30.466;2023-07-09T12:55:22;99169.63;;;24.19;47.12
63883;BME280;50047;50.596;30.466;2023-07-09T12:57:51;99173.77;;;24.26;45.69
63883;BME280;50047;50.596;30.466;2023-07-09T13:00:22;99170.44;;;24.40;45.36
63883;BME280;50047;50.596;30.466;2023-07-09T13:02:54;99173.86;;;24.55;44.64
63883;BME280;50047;50.596;30.466;2023-07-09T13:05:23;99177.58;;;24.52;44.03
63883;BME280;50047;50.596;30.466;2023-07-09T13:07:59;99173.79;;;24.46;43.98
63883;BME280;50047;50.596;30.466;2023-07-09T13:10:30;99171.17;;;24.43;44.08
63883;BME280;50047;50.596;30.466;2023-07-09T13:13:02;99162.15;;;24.43;44.75
63883;BME280;50047;50.596;30.466;2023-07-09T13:15:40;99161.21;;;24.39;45.45
63883;BME280;50047;50.596;30.466;2023-07-09T13:18:12;99154.69;;;24.32;45.63
63883;BME280;50047;50.596;30.466;2023-07-09T13:20:45;99151.05;;;24.39;44.76
63883;BME280;50047;50.596;30.466;2023-07-09T13:23:18;99156.75;;;24.53;43.69
63883;BME280;50047;50.596;30.466;2023-07-09T13:25:47;99158.34;;;24.56;44.38
63883;BME280;50047;50.596;30.466;2023-07-09T13:28:17;99160.56;;;24.50;45.89
63883;BME280;50047;50.596;30.466;2023-07-09T13:30:46;99166.50;;;24.28;46.89
63883;BME280;50047;50.596;30.466;2023-07-09T13:33:14;99166.52;;;24.13;47.79
63883;BME280;50047;50.596;30.466;2023-07-09T13:35:44;99157.67;;;24.04;48.14
63883;BME280;50047;50.596;30.466;2023-07-09T13:38:16;99158.75;;;23.95;48.06
63883;BME280;50047;50.596;30.466;2023-07-09T13:40:47;99143.52;;;23.89;47.72
63883;BME280;50047;50.596;30.466;2023-07-09T13:43:26;99145.84;;;23.96;46.28
63883;BME280;50047;50.596;30.466;2023-07-09T13:45:55;99149.64;;;23.92;45.99
63883;BME280;50047;50.596;30.466;2023-07-09T13:48:25;99143.94;;;23.85;45.74
63883;BME280;50047;50.596;30.466;2023-07-09T13:50:54;99142.67;;;23.87;45.40
63883;BME280;50047;50.596;30.466;2023-07-09T13:53:26;99135.41;;;23.87;44.37
63883;BME280;50047;50.596;30.466;2023-07-09T13:55:54;99140.17;;;24.01;44.35
63883;BME280;50047;50.596;30.466;2023-07-09T13:58:24;99134.20;;;24.13;43.48
63883;BME280;50047;50.596;30.466;2023-07-09T14:01:12;99134.52;;;24.25;42.86
63883;BME280;50047;50.596;30.466;2023-07-09T14:03:41;99138.26;;;24.36;42.55